Time;durP1;ratioP1;P1;durP2;ratioP2;P2;SDS_P1;SDS_P2;PMS_P1;PMS_P2;Temp;Humidity;BMP_temperature;BMP_pressure;BME280_temperature;BME280_humidity;BME280_pressure;Samples;Min_cycle;Max_cycle;Signal;HPM_P1;HPM_P2
2022/03/05 00:02:11;;;;;;;8.13;3.90;;;-3.20;99.90;;;;;;4970133;28;20086;-77
2022/03/05 00:04:38;;;;;;;11.07;4.50;;;-3.20;99.90;;;;;;4970208;28;20046;-77
2022/03/05 00:07:06;;;;;;;6.45;3.85;;;-3.30;99.90;;;;;;4968916;28;20051;-77
2022/03/05 00:09:33;;;;;;;9.57;4.20;;;-3.30;99.90;;;;;;4969245;28;20089;-77
2022/03/05 00:12:00;;;;;;;7.13;3.50;;;-3.30;99.90;;;;;;4968555;28;20047;-77
2022/03/05 00:14:29;;;;;;;8.88;3.78;;;-3.30;99.90;;;;;;4969634;28;20047;-77
2022/03/05 00:16:57;;;;;;;6.70;4.13;;;-3.40;99.90;;;;;;4971421;28;20121;-77
2022/03/05 00:19:25;;;;;;;6.38;2.97;;;-3.30;99.90;;;;;;4979085;28;20070;-77
2022/03/05 00:21:54;;;;;;;7.63;3.53;;;-3.40;99.90;;;;;;4959338;28;20427;-76
2022/03/05 00:24:21;;;;;;;8.88;3.90;;;-3.40;99.90;;;;;;4970047;28;20538;-77
2022/03/05 00:26:49;;;;;;;10.50;2.90;;;-3.30;99.90;;;;;;4951769;28;20538;-77
2022/03/05 00:29:16;;;;;;;4.85;3.17;;;-3.30;99.90;;;;;;4953918;28;20061;-77
2022/03/05 00:31:46;;;;;;;8.13;3.30;;;-3.30;99.90;;;;;;4972588;28;20042;-76
2022/03/05 00:34:14;;;;;;;6.93;3.58;;;-3.40;99.90;;;;;;4972200;28;20047;-76
2022/03/05 00:36:41;;;;;;;13.98;3.65;;;-3.40;99.90;;;;;;4972813;28;20047;-77
2022/03/05 00:39:08;;;;;;;8.80;3.50;;;-3.50;99.90;;;;;;4958134;28;20063;-77
2022/03/05 00:41:36;;;;;;;9.88;3.40;;;-3.50;99.90;;;;;;4972320;28;20066;-77
2022/03/05 00:44:03;;;;;;;8.50;3.22;;;-3.50;99.90;;;;;;4984136;28;20046;-77
2022/03/05 00:46:31;;;;;;;7.40;3.53;;;-3.50;99.90;;;;;;4987741;28;20046;-77
2022/03/05 00:48:59;;;;;;;9.75;2.58;;;-3.50;99.90;;;;;;4987807;28;20039;-76
2022/03/05 00:51:27;;;;;;;9.00;3.13;;;-3.60;99.90;;;;;;4968415;28;20152;-76
2022/03/05 00:53:54;;;;;;;9.85;3.20;;;-3.50;99.90;;;;;;4973423;28;20049;-76
2022/03/05 00:56:21;;;;;;;6.78;2.55;;;-3.50;99.90;;;;;;4976837;28;20052;-76
2022/03/05 00:58:49;;;;;;;16.42;3.95;;;-3.60;99.90;;;;;;4956193;28;20451;-75
2022/03/05 01:01:16;;;;;;;12.55;3.15;;;-3.60;99.90;;;;;;4971685;28;20059;-75
2022/03/05 01:03:44;;;;;;;20.17;3.90;;;-3.60;99.90;;;;;;4972357;28;20575;-74
2022/03/05 01:06:13;;;;;;;9.82;2.67;;;-3.60;99.90;;;;;;4957268;28;20158;-75
2022/03/05 01:08:40;;;;;;;6.18;2.53;;;-3.60;99.90;;;;;;4970687;28;20078;-75
2022/03/05 01:11:08;;;;;;;5.15;2.35;;;-3.70;99.90;;;;;;4955936;28;20150;-75
2022/03/05 01:13:36;;;;;;;4.03;2.28;;;-3.70;99.90;;;;;;4955301;28;20082;-75
2022/03/05 01:16:04;;;;;;;6.88;2.67;;;-3.70;99.90;;;;;;4974683;28;20074;-75
2022/03/05 01:18:31;;;;;;;6.00;2.38;;;-3.70;99.90;;;;;;4977818;28;20149;-75
2022/03/05 01:20:59;;;;;;;9.05;2.05;;;-3.70;99.90;;;;;;4939986;28;20049;-76
2022/03/05 01:23:28;;;;;;;8.82;2.20;;;-3.70;99.90;;;;;;4990660;28;20054;-75
2022/03/05 01:25:55;;;;;;;10.20;2.38;;;-3.70;99.90;;;;;;4990586;28;20129;-76
2022/03/05 01:28:23;;;;;;;8.70;2.05;;;-3.70;99.90;;;;;;4976728;28;20050;-75
2022/03/05 01:30:50;;;;;;;8.02;1.95;;;-3.70;99.90;;;;;;4972097;28;20074;-75
2022/03/05 01:33:17;;;;;;;6.63;1.98;;;-3.80;99.90;;;;;;4973778;28;20078;-75
2022/03/05 01:35:46;;;;;;;3.80;1.80;;;-3.80;99.90;;;;;;4972160;28;20047;-75
2022/03/05 01:38:14;;;;;;;7.85;1.77;;;-3.80;99.90;;;;;;4972091;28;20047;-76
2022/03/05 01:40:43;;;;;;;4.43;1.55;;;-3.80;99.90;;;;;;4971870;28;20047;-75
2022/03/05 01:43:11;;;;;;;8.25;1.60;;;-3.80;99.90;;;;;;4972686;28;20533;-76
2022/03/05 01:45:39;;;;;;;7.85;2.72;;;-3.80;99.90;;;;;;4971881;28;20632;-75
2022/03/05 01:48:07;;;;;;;5.38;1.83;;;-3.80;99.90;;;;;;4970275;28;20050;-76
2022/03/05 01:50:35;;;;;;;10.77;2.80;;;-3.90;99.90;;;;;;4966157;28;20082;-76
2022/03/05 01:53:03;;;;;;;7.68;1.73;;;-3.90;99.90;;;;;;4992855;28;20042;-76
2022/03/05 01:55:31;;;;;;;3.67;1.67;;;-3.90;99.90;;;;;;4977445;28;20133;-75
2022/03/05 01:58:00;;;;;;;4.43;1.50;;;-3.90;99.90;;;;;;4976660;28;20051;-75
2022/03/05 02:00:27;;;;;;;4.68;2.03;;;-3.90;99.90;;;;;;4956328;28;20431;-75
2022/03/05 02:02:54;;;;;;;5.15;1.38;;;-3.90;99.90;;;;;;4982794;28;20053;-75
2022/03/05 02:05:24;;;;;;;6.38;1.75;;;-3.90;99.90;;;;;;4955321;28;20046;-75
2022/03/05 02:07:51;;;;;;;4.43;2.05;;;-3.90;99.90;;;;;;4974245;28;20061;-75
2022/03/05 02:10:20;;;;;;;6.05;2.05;;;-3.90;99.90;;;;;;4992576;28;20130;-75
2022/03/05 02:12:47;;;;;;;10.00;2.55;;;-3.90;99.90;;;;;;4983719;28;20066;-75
2022/03/05 02:15:16;;;;;;;6.60;2.80;;;-3.90;99.90;;;;;;4984682;28;20618;-75
2022/03/05 02:17:43;;;;;;;12.00;3.08;;;-4.00;99.90;;;;;;4954462;28;20627;-75
2022/03/05 02:20:12;;;;;;;8.80;3.47;;;-4.00;99.90;;;;;;4972715;28;20050;-74
2022/03/05 02:22:41;;;;;;;9.77;2.45;;;-4.00;99.90;;;;;;4971131;28;20058;-75
2022/03/05 02:25:10;;;;;;;9.05;2.13;;;-4.00;99.90;;;;;;4952670;28;20043;-75
2022/03/05 02:27:37;;;;;;;6.25;2.90;;;-4.00;99.90;;;;;;4987275;28;20065;-75
2022/03/05 02:30:06;;;;;;;5.00;2.05;;;-4.10;99.90;;;;;;4940703;28;20042;-76
2022/03/05 02:32:34;;;;;;;7.13;1.77;;;-4.10;99.90;;;;;;4953769;28;20047;-75
2022/03/05 02:35:01;;;;;;;4.00;1.85;;;-4.10;99.90;;;;;;4973241;28;20070;-75
2022/03/05 02:37:30;;;;;;;3.08;1.60;;;-4.10;99.90;;;;;;4971253;28;20677;-76
2022/03/05 02:39:59;;;;;;;3.60;1.40;;;-4.10;99.90;;;;;;4954533;28;20451;-75
2022/03/05 02:42:27;;;;;;;4.85;1.98;;;-4.10;99.90;;;;;;4970942;28;20043;-76
2022/03/05 02:44:56;;;;;;;3.25;1.52;;;-4.20;99.90;;;;;;4957914;28;20096;-74
2022/03/05 02:47:24;;;;;;;6.25;1.35;;;-4.20;99.90;;;;;;4956010;28;20066;-75
2022/03/05 02:49:51;;;;;;;4.40;1.40;;;-4.20;99.90;;;;;;4972340;28;20422;-75
2022/03/05 02:52:19;;;;;;;4.82;1.65;;;-4.20;99.90;;;;;;4972165;28;20057;-74
2022/03/05 02:54:46;;;;;;;4.53;1.67;;;-4.20;99.90;;;;;;4953426;28;20145;-74
2022/03/05 02:57:15;;;;;;;3.10;1.10;;;-4.20;99.90;;;;;;4961680;28;20038;-75
2022/03/05 02:59:42;;;;;;;4.72;1.60;;;-4.20;99.90;;;;;;4983982;28;20050;-75
2022/03/05 03:02:10;;;;;;;5.55;1.50;;;-4.20;99.90;;;;;;4971696;28;20086;-75
2022/03/05 03:04:37;;;;;;;5.28;1.30;;;-4.20;99.90;;;;;;4953404;28;20064;-75
2022/03/05 03:07:04;;;;;;;5.57;2.03;;;-4.20;99.90;;;;;;4974852;28;20531;-75
2022/03/05 03:09:32;;;;;;;6.55;1.38;;;-4.20;99.90;;;;;;4967469;28;20046;-76
2022/03/05 03:11:59;;;;;;;6.88;1.90;;;-4.20;99.90;;;;;;4979945;28;20059;-75
2022/03/05 03:14:28;;;;;;;7.22;2.03;;;-4.20;99.90;;;;;;4971214;28;20234;-75
2022/03/05 03:16:56;;;;;;;5.78;1.30;;;-4.30;99.90;;;;;;4967253;28;20054;-76
2022/03/05 03:19:23;;;;;;;4.07;1.63;;;-4.30;99.90;;;;;;4971896;28;20058;-75
2022/03/05 03:21:51;;;;;;;3.83;1.67;;;-4.30;99.90;;;;;;4987875;28;20054;-75
2022/03/05 03:24:18;;;;;;;12.18;1.63;;;-4.40;99.90;;;;;;4989749;28;20060;-75
2022/03/05 03:26:45;;;;;;;10.07;1.80;;;-4.40;99.90;;;;;;4976516;28;20498;-75
2022/03/05 03:29:14;;;;;;;8.05;1.55;;;-4.30;99.90;;;;;;4971496;28;20130;-75
2022/03/05 03:31:43;;;;;;;10.20;2.53;;;-4.30;99.90;;;;;;4970885;28;20055;-75
2022/03/05 03:34:10;;;;;;;14.75;3.45;;;-4.40;99.90;;;;;;4954443;28;20043;-75
2022/03/05 03:36:38;;;;;;;11.73;4.18;;;-4.40;99.90;;;;;;4973712;28;20573;-75
2022/03/05 03:39:05;;;;;;;8.55;3.67;;;-4.40;99.90;;;;;;4970328;28;20500;-75
2022/03/05 03:41:33;;;;;;;15.80;5.13;;;-4.40;99.90;;;;;;4952878;28;20109;-75
2022/03/05 03:44:00;;;;;;;15.32;5.45;;;-4.50;99.90;;;;;;4973715;28;20498;-75
2022/03/05 03:46:28;;;;;;;21.05;7.68;;;-4.50;99.90;;;;;;4975716;28;20106;-74
2022/03/05 03:48:57;;;;;;;19.15;7.45;;;-4.50;99.90;;;;;;4990703;28;20088;-75
2022/03/05 03:51:24;;;;;;;30.52;10.00;;;-4.50;99.90;;;;;;4978600;28;20058;-75
2022/03/05 03:53:52;;;;;;;32.28;12.93;;;-4.50;99.90;;;;;;4982195;28;20058;-75
2022/03/05 03:56:19;;;;;;;48.55;13.85;;;-4.60;99.90;;;;;;4954724;28;20578;-75
2022/03/05 03:58:47;;;;;;;39.53;14.05;;;-4.60;99.90;;;;;;4987095;28;20051;-75
2022/03/05 04:01:15;;;;;;;36.53;12.45;;;-4.60;99.90;;;;;;4962020;28;20058;-75
2022/03/05 04:03:43;;;;;;;37.63;12.63;;;-4.60;99.90;;;;;;4985176;28;20058;-74
2022/03/05 04:06:11;;;;;;;31.33;12.18;;;-4.60;99.90;;;;;;4968694;28;20898;-75
2022/03/05 04:08:42;;;;;;;25.63;12.98;;;-4.60;99.90;;;;;;4973122;28;20482;-75
2022/03/05 04:11:10;;;;;;;28.85;11.40;;;-4.60;99.90;;;;;;4976125;28;20050;-75
2022/03/05 04:13:38;;;;;;;23.58;8.85;;;-4.60;99.90;;;;;;4972046;28;20526;-76
2022/03/05 04:16:06;;;;;;;23.25;9.35;;;-4.70;99.90;;;;;;4976864;28;20061;-77
2022/03/05 04:18:36;;;;;;;17.63;7.38;;;-4.70;99.90;;;;;;4974953;28;20430;-78
2022/03/05 04:21:06;;;;;;;12.07;5.28;;;-4.70;99.90;;;;;;4967059;28;20043;-78
2022/03/05 04:23:37;;;;;;;12.45;5.30;;;-4.70;99.90;;;;;;4971384;28;20207;-77
2022/03/05 04:26:05;;;;;;;13.95;5.20;;;-4.70;99.90;;;;;;4972710;28;20051;-77
2022/03/05 04:28:32;;;;;;;12.82;5.03;;;-4.70;99.90;;;;;;4975212;28;20042;-77
2022/03/05 04:31:00;;;;;;;14.27;5.32;;;-4.70;99.90;;;;;;4974624;28;20149;-79
2022/03/05 04:33:28;;;;;;;19.80;6.45;;;-4.70;99.90;;;;;;4966779;28;20058;-80
2022/03/05 04:35:56;;;;;;;14.43;5.13;;;-4.80;99.90;;;;;;4975675;28;20055;-81
2022/03/05 04:38:23;;;;;;;12.15;4.53;;;-4.80;99.90;;;;;;4975706;28;20400;-79
2022/03/05 04:40:52;;;;;;;17.95;6.22;;;-4.80;99.90;;;;;;4942129;28;20125;-80
2022/03/05 04:43:20;;;;;;;9.77;3.95;;;-4.70;99.90;;;;;;4978344;28;20574;-75
2022/03/05 04:45:48;;;;;;;13.15;3.65;;;-4.70;99.90;;;;;;4957021;28;20094;-76
2022/03/05 04:48:15;;;;;;;15.05;3.42;;;-4.80;99.90;;;;;;4957198;28;20043;-78
2022/03/05 04:50:45;;;;;;;7.30;3.55;;;-4.80;99.90;;;;;;4976266;28;20054;-80
2022/03/05 04:53:13;;;;;;;10.13;2.30;;;-4.70;99.90;;;;;;4941095;28;20113;-73
2022/03/05 04:55:41;;;;;;;13.05;3.22;;;-4.70;99.90;;;;;;4955566;28;20054;-74
2022/03/05 04:58:13;;;;;;;15.48;2.70;;;-4.70;99.90;;;;;;4974647;28;20463;-74
2022/03/05 05:00:40;;;;;;;10.15;2.30;;;-4.70;99.90;;;;;;4949064;28;20487;-73
2022/03/05 05:03:11;;;;;;;12.32;2.40;;;-4.70;99.90;;;;;;4942835;28;20046;-77
2022/03/05 05:05:38;;;;;;;7.60;2.00;;;-4.70;99.90;;;;;;4980472;28;20142;-81
2022/03/05 05:08:06;;;;;;;14.10;2.00;;;-4.70;99.90;;;;;;4983590;28;20051;-84
2022/03/05 05:10:34;;;;;;;18.30;2.58;;;-4.70;99.90;;;;;;4954803;28;20043;-80
2022/03/05 05:13:01;;;;;;;9.25;2.15;;;-4.70;99.90;;;;;;4972694;28;20116;-75
2022/03/05 05:15:30;;;;;;;10.55;1.92;;;-4.70;99.90;;;;;;4981511;28;20427;-76
2022/03/05 05:18:00;;;;;;;11.70;2.47;;;-4.70;99.90;;;;;;4959175;28;20124;-76
2022/03/05 05:20:29;;;;;;;6.00;3.35;;;-4.60;99.90;;;;;;4989855;28;20603;-79
2022/03/05 05:22:56;;;;;;;8.60;2.38;;;-4.60;99.90;;;;;;4990170;28;20061;-76
2022/03/05 05:25:24;;;;;;;12.23;2.35;;;-4.60;99.90;;;;;;4987952;28;20427;-75
2022/03/05 05:27:51;;;;;;;13.95;2.88;;;-4.60;99.90;;;;;;4968329;28;20137;-75
2022/03/05 05:30:19;;;;;;;11.13;3.22;;;-4.50;99.90;;;;;;4937385;28;20061;-80
2022/03/05 05:32:48;;;;;;;18.45;2.75;;;-4.50;99.90;;;;;;4952863;28;20070;-79
2022/03/05 05:35:16;;;;;;;23.52;3.67;;;-4.50;99.90;;;;;;4944048;28;20047;-79
2022/03/05 05:37:46;;;;;;;14.15;3.00;;;-4.40;99.90;;;;;;4934534;28;20050;-78
2022/03/05 05:40:14;;;;;;;29.13;6.38;;;-4.40;99.90;;;;;;4935624;28;20501;-79
2022/03/05 05:42:42;;;;;;;15.27;2.92;;;-4.30;99.90;;;;;;4954602;28;20105;-79
2022/03/05 05:45:10;;;;;;;17.73;2.72;;;-4.30;99.90;;;;;;4970191;28;20447;-77
2022/03/05 05:47:38;;;;;;;14.95;3.28;;;-4.30;99.90;;;;;;4953107;28;20062;-81
2022/03/05 05:50:09;;;;;;;19.25;3.10;;;-4.20;99.90;;;;;;4941061;28;20467;-81
2022/03/05 05:52:38;;;;;;;13.40;2.72;;;-4.20;99.90;;;;;;4955685;28;20512;-81
2022/03/05 05:55:06;;;;;;;18.75;3.78;;;-4.20;99.90;;;;;;4972693;28;20046;-79
2022/03/05 05:57:33;;;;;;;15.45;2.40;;;-4.20;99.90;;;;;;4980164;28;20047;-81
2022/03/05 06:00:01;;;;;;;11.30;2.92;;;-4.10;99.90;;;;;;4961597;28;20095;-78
2022/03/05 06:02:32;;;;;;;15.45;2.50;;;-4.10;99.90;;;;;;4970890;28;20046;-78
2022/03/05 06:05:01;;;;;;;10.80;2.97;;;-4.00;99.90;;;;;;4978294;28;20050;-76
2022/03/05 06:07:30;;;;;;;13.90;3.22;;;-4.00;99.90;;;;;;4971546;28;20051;-79
2022/03/05 06:09:57;;;;;;;6.65;2.10;;;-4.00;99.90;;;;;;4973853;28;20466;-79
2022/03/05 06:12:25;;;;;;;7.32;3.15;;;-3.90;99.90;;;;;;4942547;28;20420;-79
2022/03/05 06:14:53;;;;;;;12.63;3.72;;;-3.80;99.90;;;;;;4952486;28;20082;-79
2022/03/05 06:17:20;;;;;;;10.27;2.60;;;-3.80;99.90;;;;;;4955618;28;20142;-79
2022/03/05 06:19:47;;;;;;;9.00;3.40;;;-3.70;99.90;;;;;;4954444;28;20058;-79
2022/03/05 06:22:15;;;;;;;7.88;2.78;;;-3.60;99.90;;;;;;4938987;28;20047;-77
2022/03/05 06:24:44;;;;;;;14.18;3.08;;;-3.60;99.90;;;;;;4971158;28;20046;-79
2022/03/05 06:27:11;;;;;;;9.85;2.60;;;-3.50;99.90;;;;;;4973992;28;20399;-78
2022/03/05 06:29:39;;;;;;;17.58;3.47;;;-3.50;99.90;;;;;;4980400;28;20058;-77
2022/03/05 06:32:07;;;;;;;12.30;3.42;;;-3.50;99.90;;;;;;4975618;28;20093;-77
2022/03/05 06:34:36;;;;;;;14.85;3.50;;;-3.50;99.90;;;;;;4980236;28;20632;-77
2022/03/05 06:37:04;;;;;;;16.55;3.33;;;-3.40;99.90;;;;;;4977697;28;20137;-77
2022/03/05 06:39:31;;;;;;;13.35;3.38;;;-3.30;99.90;;;;;;4981369;28;20056;-78
2022/03/05 06:42:00;;;;;;;14.70;2.45;;;-3.30;99.90;;;;;;4979756;28;20050;-77
2022/03/05 06:44:28;;;;;;;12.07;2.78;;;-3.30;99.90;;;;;;4968334;28;20053;-77
2022/03/05 06:46:55;;;;;;;12.95;3.25;;;-3.30;99.90;;;;;;4968989;28;20053;-80
2022/03/05 06:49:23;;;;;;;10.77;2.92;;;-3.20;99.90;;;;;;4971325;28;20125;-81
2022/03/05 06:51:50;;;;;;;13.10;4.45;;;-3.20;99.90;;;;;;4975183;28;20101;-76
2022/03/05 06:54:18;;;;;;;15.93;3.33;;;-3.10;99.90;;;;;;4977268;28;20140;-76
2022/03/05 06:56:45;;;;;;;9.00;3.40;;;-3.10;99.90;;;;;;4984131;28;20053;-76
2022/03/05 06:59:15;;;;;;;15.02;2.90;;;-3.00;99.90;;;;;;4970739;28;20054;-76
2022/03/05 07:01:47;;;;;;;13.80;3.20;;;-3.00;99.90;;;;;;4951493;28;20392;-76
2022/03/05 07:04:15;;;;;;;14.30;3.10;;;-2.90;99.90;;;;;;4971018;28;20061;-81
2022/03/05 07:06:42;;;;;;;20.20;3.10;;;-2.80;99.90;;;;;;4971105;28;20074;-81
2022/03/05 07:09:10;;;;;;;13.27;3.28;;;-2.70;99.90;;;;;;4963763;28;20046;-80
2022/03/05 07:11:37;;;;;;;19.23;2.95;;;-2.70;99.90;;;;;;4967214;28;20105;-81
2022/03/05 07:14:05;;;;;;;13.02;3.15;;;-2.60;99.90;;;;;;4958010;28;20046;-80
2022/03/05 07:16:37;;;;;;;20.98;3.65;;;-2.50;99.90;;;;;;4955786;28;20039;-80
2022/03/05 07:19:05;;;;;;;13.80;3.80;;;-2.40;99.90;;;;;;4960179;28;20046;-75
2022/03/05 07:21:32;;;;;;;16.60;2.85;;;-2.30;99.90;;;;;;4964358;28;20087;-76
2022/03/05 07:23:59;;;;;;;18.50;3.65;;;-1.90;99.90;;;;;;4975102;28;20054;-76
2022/03/05 07:26:27;;;;;;;13.32;3.45;;;-0.70;99.90;;;;;;4972006;28;20085;-75
2022/03/05 07:28:55;;;;;;;16.80;4.40;;;0.90;99.90;;;;;;4951286;28;20050;-76
2022/03/05 07:31:23;;;;;;;22.15;5.30;;;2.40;99.90;;;;;;4969967;28;20109;-76
2022/03/05 07:33:52;;;;;;;15.48;3.92;;;3.70;99.90;;;;;;4967599;28;20054;-77
2022/03/05 07:36:20;;;;;;;18.23;4.32;;;4.70;99.90;;;;;;4950416;29;20047;-74
2022/03/05 07:38:47;;;;;;;24.38;5.07;;;5.60;95.40;;;;;;4962616;28;20460;-75
2022/03/05 07:41:15;;;;;;;22.33;4.25;;;6.20;90.60;;;;;;4975558;28;20100;-75
2022/03/05 07:43:42;;;;;;;17.17;4.70;;;6.70;84.20;;;;;;4973747;28;20070;-77
2022/03/05 07:46:10;;;;;;;16.63;4.45;;;6.80;81.00;;;;;;4953544;28;20043;-76
2022/03/05 07:48:38;;;;;;;20.80;4.45;;;6.70;80.40;;;;;;4967493;28;20061;-75
2022/03/05 07:51:10;;;;;;;25.05;4.72;;;6.70;78.10;;;;;;4951950;28;20511;-76
2022/03/05 07:53:37;;;;;;;12.27;4.03;;;6.40;77.90;;;;;;4969705;28;20161;-77
2022/03/05 07:56:06;;;;;;;21.50;4.60;;;5.80;80.40;;;;;;4968563;28;20066;-77
2022/03/05 07:58:33;;;;;;;18.10;5.03;;;5.50;82.30;;;;;;4969981;28;20047;-77
2022/03/05 08:01:01;;;;;;;17.77;3.83;;;5.30;83.90;;;;;;4969074;28;20101;-76
2022/03/05 08:03:28;;;;;;;17.55;3.70;;;5.40;86.30;;;;;;4967297;28;20687;-77
2022/03/05 08:05:56;;;;;;;17.33;3.67;;;5.70;86.00;;;;;;4967565;28;20078;-77
2022/03/05 08:08:25;;;;;;;13.50;3.13;;;6.20;82.50;;;;;;4967893;28;20082;-77
2022/03/05 08:10:52;;;;;;;22.02;3.60;;;6.60;78.90;;;;;;4969744;28;20055;-77
2022/03/05 08:13:20;;;;;;;16.88;3.83;;;7.20;78.20;;;;;;4970373;28;20132;-77
2022/03/05 08:15:48;;;;;;;11.07;2.65;;;8.00;73.90;;;;;;4951539;28;20050;-77
2022/03/05 08:18:16;;;;;;;14.65;3.38;;;8.70;69.30;;;;;;4952003;28;20655;-77
2022/03/05 08:20:43;;;;;;;13.73;3.53;;;9.50;66.20;;;;;;4968918;28;20106;-77
2022/03/05 08:23:11;;;;;;;11.85;3.40;;;10.00;63.30;;;;;;4953002;28;20051;-78
2022/03/05 08:25:40;;;;;;;15.57;4.25;;;10.70;62.10;;;;;;4968608;28;20454;-77
2022/03/05 08:28:07;;;;;;;14.27;3.60;;;11.20;59.60;;;;;;4969451;28;20043;-78
2022/03/05 08:30:35;;;;;;;10.15;3.53;;;11.40;58.40;;;;;;4969119;28;20062;-77
2022/03/05 08:33:02;;;;;;;17.52;3.90;;;11.70;57.00;;;;;;4967622;28;20149;-78
2022/03/05 08:35:30;;;;;;;11.00;3.35;;;11.80;56.20;;;;;;4984023;28;20054;-79
2022/03/05 08:37:58;;;;;;;8.88;3.45;;;12.10;55.70;;;;;;4950772;28;20043;-77
2022/03/05 08:40:25;;;;;;;18.23;3.35;;;12.40;54.70;;;;;;4950603;28;20105;-79
2022/03/05 08:42:54;;;;;;;9.95;2.83;;;12.40;53.80;;;;;;4955729;28;20077;-77
2022/03/05 08:45:22;;;;;;;13.80;2.80;;;12.70;53.40;;;;;;4951347;28;20061;-76
2022/03/05 08:47:50;;;;;;;11.30;2.92;;;12.90;52.60;;;;;;4970313;28;20128;-77
2022/03/05 08:50:17;;;;;;;9.13;2.70;;;13.00;52.70;;;;;;4970564;28;20059;-79
2022/03/05 08:52:45;;;;;;;7.28;2.60;;;13.30;51.90;;;;;;4963525;28;20441;-78
2022/03/05 08:55:16;;;;;;;7.70;2.60;;;13.30;50.90;;;;;;4962044;28;20532;-77
2022/03/05 08:57:44;;;;;;;6.63;2.30;;;13.40;50.30;;;;;;4971224;28;20051;-77
2022/03/05 09:00:15;;;;;;;10.85;2.50;;;13.50;49.80;;;;;;4973749;28;20138;-78
2022/03/05 09:02:43;;;;;;;10.05;2.38;;;13.80;49.90;;;;;;4953007;28;20055;-78
2022/03/05 09:05:13;;;;;;;7.13;2.47;;;14.00;49.50;;;;;;4972209;28;20137;-78
2022/03/05 09:07:40;;;;;;;8.10;2.55;;;14.10;48.80;;;;;;4972934;28;20061;-77
2022/03/05 09:10:09;;;;;;;9.02;2.60;;;13.90;48.60;;;;;;4972309;28;20055;-78
2022/03/05 09:12:37;;;;;;;13.80;2.78;;;13.90;48.70;;;;;;4972653;28;20065;-79
2022/03/05 09:15:06;;;;;;;5.07;2.63;;;14.00;48.50;;;;;;4971532;28;20062;-77
2022/03/05 09:17:35;;;;;;;10.88;2.95;;;14.00;48.50;;;;;;4972382;28;20053;-77
2022/03/05 09:20:03;;;;;;;12.90;3.08;;;14.00;48.50;;;;;;4971736;28;20157;-74
2022/03/05 09:22:31;;;;;;;15.25;3.13;;;14.00;48.50;;;;;;4972890;28;20146;-77
2022/03/05 09:24:58;;;;;;;12.20;3.53;;;14.00;48.50;;;;;;4972312;28;20053;-80
2022/03/05 09:27:26;;;;;;;9.52;4.13;;;14.40;48.60;;;;;;4971920;28;20055;-78
2022/03/05 09:29:53;;;;;;;9.90;3.20;;;14.40;48.70;;;;;;4971964;28;20055;-78
2022/03/05 09:32:21;;;;;;;13.98;2.85;;;14.30;47.90;;;;;;4971750;28;20067;-78
2022/03/05 09:34:50;;;;;;;19.40;4.07;;;14.00;48.10;;;;;;4973631;28;20061;-77
2022/03/05 09:37:17;;;;;;;13.57;3.35;;;14.00;48.30;;;;;;4977326;28;20086;-78
2022/03/05 09:39:46;;;;;;;12.82;3.20;;;14.20;49.20;;;;;;4972911;28;20046;-79
2022/03/05 09:42:17;;;;;;;7.90;3.30;;;14.40;48.20;;;;;;4960024;28;20042;-80
2022/03/05 09:44:48;;;;;;;9.77;3.83;;;14.30;47.70;;;;;;4980099;28;20053;-79
2022/03/05 09:47:16;;;;;;;12.43;4.10;;;14.40;47.90;;;;;;4965585;28;20055;-80
2022/03/05 09:49:44;;;;;;;7.68;3.28;;;14.10;48.00;;;;;;4977220;28;20423;-79
2022/03/05 09:52:13;;;;;;;10.40;4.00;;;14.20;48.00;;;;;;4978901;28;20062;-86
2022/03/05 09:54:41;;;;;;;9.40;3.30;;;14.00;47.50;;;;;;4972233;28;20047;-86
2022/03/05 09:57:11;;;;;;;10.95;3.88;;;13.50;48.40;;;;;;4970277;28;20459;-84
2022/03/05 09:59:39;;;;;;;12.80;3.97;;;13.00;48.70;;;;;;4971469;28;20057;-82
2022/03/05 10:02:07;;;;;;;8.80;3.67;;;12.40;50.00;;;;;;4954323;28;20046;-78
2022/03/05 10:04:35;;;;;;;15.23;4.05;;;11.70;51.30;;;;;;4953068;28;20057;-78
2022/03/05 10:07:15;;;;;;;8.60;4.00;;;11.00;52.30;;;;;;4969286;28;20126;-77
2022/03/05 10:09:47;;;;;;;15.93;4.72;;;10.30;53.00;;;;;;4969220;28;20085;-77
2022/03/05 10:12:31;;;;;;;14.10;3.90;;;10.10;54.10;;;;;;4971190;28;20047;-76
2022/03/05 10:15:10;;;;;;;10.60;3.75;;;10.10;54.60;;;;;;4979837;28;20051;-76
2022/03/05 10:17:53;;;;;;;10.32;3.60;;;10.80;54.20;;;;;;4971432;28;20054;-82
2022/03/05 10:20:22;;;;;;;11.70;4.03;;;11.60;52.50;;;;;;4969103;28;20397;-76
2022/03/05 10:23:04;;;;;;;11.98;3.53;;;12.30;51.80;;;;;;4971976;28;20055;-78
2022/03/05 10:25:35;;;;;;;12.68;3.45;;;13.00;51.10;;;;;;4969790;28;20051;-76
2022/03/05 10:28:07;;;;;;;10.85;3.85;;;13.70;49.10;;;;;;4974343;28;20042;-78
2022/03/05 10:30:39;;;;;;;7.28;3.60;;;13.90;48.40;;;;;;4990314;28;20514;-76
2022/03/05 10:33:08;;;;;;;6.28;3.88;;;13.70;48.50;;;;;;4987698;28;20504;-77
2022/03/05 10:35:36;;;;;;;12.90;3.53;;;13.10;49.70;;;;;;4966157;28;20393;-79
2022/03/05 10:38:05;;;;;;;14.63;4.00;;;13.10;49.60;;;;;;4951243;28;20055;-77
2022/03/05 10:40:36;;;;;;;12.45;6.68;;;13.70;48.70;;;;;;4968171;28;20130;-78
2022/03/05 10:43:07;;;;;;;14.02;3.67;;;14.20;47.40;;;;;;4973547;28;20077;-78
2022/03/05 10:45:53;;;;;;;6.45;3.28;;;14.60;46.70;;;;;;4970948;28;20522;-78
2022/03/05 10:48:27;;;;;;;8.43;4.10;;;14.90;45.60;;;;;;4959665;28;20083;-77
2022/03/05 10:50:59;;;;;;;9.88;3.60;;;15.00;45.80;;;;;;4967879;28;20046;-78
2022/03/05 10:53:39;;;;;;;8.88;3.50;;;14.50;46.20;;;;;;4969659;28;20055;-77
2022/03/05 10:56:28;;;;;;;13.65;4.40;;;14.10;47.10;;;;;;4972306;28;20093;-78
2022/03/05 10:59:21;;;;;;;11.93;3.55;;;13.30;47.50;;;;;;4969566;28;20428;-78
2022/03/05 11:01:49;;;;;;;14.65;3.60;;;12.70;49.90;;;;;;4950530;28;20050;-78
2022/03/05 11:04:16;;;;;;;12.00;4.18;;;13.10;50.00;;;;;;4970359;28;20059;-77
2022/03/05 11:06:45;;;;;;;11.00;3.70;;;13.50;49.50;;;;;;4970219;28;20649;-77
2022/03/05 11:09:14;;;;;;;9.05;3.13;;;14.10;48.40;;;;;;4971683;28;20069;-78
2022/03/05 11:11:44;;;;;;;5.97;3.15;;;14.70;47.30;;;;;;4969067;28;20055;-78
2022/03/05 11:14:16;;;;;;;11.93;3.25;;;15.50;46.00;;;;;;4969805;28;20586;-77
2022/03/05 11:16:44;;;;;;;10.05;4.30;;;15.50;44.80;;;;;;4968959;28;20061;-77
2022/03/05 11:19:14;;;;;;;11.73;3.58;;;15.00;45.60;;;;;;4970194;28;20050;-78
2022/03/05 11:21:41;;;;;;;7.88;3.05;;;14.40;46.70;;;;;;4967541;28;20471;-78
2022/03/05 11:24:14;;;;;;;10.13;3.80;;;13.70;46.80;;;;;;4970581;28;20051;-77
2022/03/05 11:26:45;;;;;;;16.23;3.58;;;13.40;47.70;;;;;;4970045;28;20132;-79
2022/03/05 11:29:18;;;;;;;10.70;3.75;;;13.70;47.20;;;;;;4968784;28;20055;-78
2022/03/05 11:31:47;;;;;;;6.70;3.30;;;14.40;47.20;;;;;;4969059;28;20296;-77
2022/03/05 11:34:17;;;;;;;15.00;3.47;;;14.70;46.60;;;;;;4965799;28;20530;-77
2022/03/05 11:36:46;;;;;;;9.95;3.10;;;14.70;46.30;;;;;;4956663;28;20541;-77
2022/03/05 11:39:19;;;;;;;7.93;3.00;;;14.60;46.30;;;;;;4969258;28;20514;-77
2022/03/05 11:41:57;;;;;;;6.18;3.10;;;14.80;45.50;;;;;;4970650;28;20459;-79
2022/03/05 11:44:28;;;;;;;8.18;2.70;;;15.20;45.10;;;;;;4953209;28;20046;-77
2022/03/05 11:47:26;;;;;;;7.85;3.05;;;15.50;44.40;;;;;;4953607;28;20046;-78
2022/03/05 11:50:16;;;;;;;17.27;3.65;;;15.70;44.70;;;;;;4969206;28;20055;-79
2022/03/05 11:53:06;;;;;;;22.10;5.03;;;15.90;43.70;;;;;;4972141;28;20050;-79
2022/03/05 11:55:41;;;;;;;22.98;4.85;;;15.90;44.10;;;;;;4963993;28;20054;-77
2022/03/05 11:58:35;;;;;;;20.95;4.80;;;15.50;44.10;;;;;;4968719;28;21491;-77
2022/03/05 12:01:35;;;;;;;18.33;4.72;;;14.90;45.70;;;;;;4951640;28;20055;-78
2022/03/05 12:04:23;;;;;;;20.67;4.60;;;14.50;45.90;;;;;;4969825;28;20534;-79
2022/03/05 12:06:56;;;;;;;12.18;4.03;;;14.40;46.00;;;;;;4969228;28;20499;-79
2022/03/05 12:09:42;;;;;;;19.58;4.78;;;14.20;45.80;;;;;;4969672;28;20070;-79
2022/03/05 12:12:15;;;;;;;17.00;4.53;;;13.90;46.30;;;;;;4970032;28;20070;-80
2022/03/05 12:15:14;;;;;;;19.75;3.97;;;13.80;47.00;;;;;;4970778;28;20043;-78
2022/03/05 12:17:52;;;;;;;24.55;4.78;;;13.80;47.60;;;;;;4946552;28;20142;-78
2022/03/05 12:20:29;;;;;;;21.30;5.05;;;13.80;47.10;;;;;;4981673;28;20110;-79
2022/03/05 12:23:01;;;;;;;18.02;4.57;;;14.00;46.80;;;;;;4973632;28;20055;-80
2022/03/05 12:25:31;;;;;;;15.48;4.55;;;14.20;47.10;;;;;;4941482;28;20093;-86
2022/03/05 12:28:02;;;;;;;26.95;5.80;;;14.10;46.70;;;;;;4935815;28;20094;-80
2022/03/05 12:30:32;;;;;;;22.10;5.43;;;14.10;46.50;;;;;;4967832;28;20055;-78
2022/03/05 12:33:05;;;;;;;15.23;4.20;;;14.30;46.00;;;;;;4973737;28;20058;-79
2022/03/05 12:35:34;;;;;;;16.85;4.32;;;14.40;46.20;;;;;;4954935;28;20054;-79
2022/03/05 12:38:01;;;;;;;15.05;4.40;;;13.90;46.30;;;;;;4972588;28;20055;-80
2022/03/05 12:40:31;;;;;;;18.95;4.13;;;13.20;46.80;;;;;;4981198;28;20092;-77
2022/03/05 12:43:03;;;;;;;22.20;5.22;;;12.50;47.90;;;;;;4983961;28;20145;-78
2022/03/05 12:45:32;;;;;;;19.73;4.70;;;12.10;49.00;;;;;;4971138;28;20055;-78
2022/03/05 12:48:08;;;;;;;26.30;5.53;;;11.90;49.30;;;;;;4974318;28;20058;-80
2022/03/05 12:50:38;;;;;;;15.20;4.50;;;11.60;50.60;;;;;;4973457;28;20055;-78
2022/03/05 12:53:09;;;;;;;18.17;4.68;;;11.00;50.80;;;;;;4972835;28;20531;-78